Time;durP1;ratioP1;P1;durP2;ratioP2;P2;SDS_P1;SDS_P2;PMS_P1;PMS_P2;Temp;Humidity;BMP_temperature;BMP_pressure;BME280_temperature;BME280_humidity;BME280_pressure;Samples;Min_cycle;Max_cycle;Signal;HPM_P1;HPM_P2
2022/10/21 00:01:32;;;;;;;71.73;36.83;;;;;;;;;;5031999;28;20415;-65
2022/10/21 00:03:58;;;;;;;79.63;39.33;;;;;;;;;;5031760;28;20078;-64
2022/10/21 00:06:24;;;;;;;89.87;41.00;;;;;;;;;;5030598;28;20049;-65
2022/10/21 00:08:50;;;;;;;84.17;39.07;;;;;;;;;;5026041;28;20050;-65
2022/10/21 00:11:16;;;;;;;79.20;37.43;;;;;;;;;;5011692;28;20845;-65
2022/10/21 00:13:42;;;;;;;106.97;45.70;;;;;;;;;;5012009;28;20455;-65
2022/10/21 00:16:12;;;;;;;79.63;37.93;;;;;;;;;;5011863;28;20041;-65
2022/10/21 00:18:39;;;;;;;113.83;45.37;;;;;;;;;;5011732;28;20083;-64
2022/10/21 00:21:09;;;;;;;84.13;39.03;;;;;;;;;;5011522;28;20044;-65
2022/10/21 00:23:35;;;;;;;86.53;39.23;;;;;;;;;;5011808;28;20088;-65
2022/10/21 00:26:02;;;;;;;93.80;42.67;;;;;;;;;;5011768;28;20041;-65
2022/10/21 00:28:28;;;;;;;96.77;41.70;;;;;;;;;;5011663;28;20046;-65
2022/10/21 00:30:55;;;;;;;79.17;37.87;;;;;;;;;;5017068;28;20487;-65
2022/10/21 00:33:21;;;;;;;73.10;37.23;;;;;;;;;;5026346;28;20052;-65
2022/10/21 00:35:51;;;;;;;98.10;43.07;;;;;;;;;;5014714;28;20053;-65
2022/10/21 00:38:17;;;;;;;90.00;41.47;;;;;;;;;;5010181;28;20873;-65
2022/10/21 00:40:43;;;;;;;99.17;43.10;;;;;;;;;;5011718;28;20045;-65
2022/10/21 00:43:10;;;;;;;115.77;42.90;;;;;;;;;;5011554;28;20056;-65
2022/10/21 00:45:36;;;;;;;94.90;40.57;;;;;;;;;;5011025;28;20124;-65
2022/10/21 00:48:04;;;;;;;100.30;40.47;;;;;;;;;;5011313;28;20045;-65
2022/10/21 00:50:32;;;;;;;81.97;38.73;;;;;;;;;;5011482;28;20049;-65
2022/10/21 00:52:59;;;;;;;116.17;43.93;;;;;;;;;;5025329;28;20259;-65
2022/10/21 00:55:27;;;;;;;77.43;35.90;;;;;;;;;;5028568;28;20147;-65
2022/10/21 00:57:53;;;;;;;87.83;40.23;;;;;;;;;;5030930;28;20045;-65
2022/10/21 01:00:19;;;;;;;77.97;36.50;;;;;;;;;;5016421;28;20423;-65
2022/10/21 01:02:45;;;;;;;103.30;42.80;;;;;;;;;;5021980;28;20048;-65
2022/10/21 01:05:12;;;;;;;120.17;44.37;;;;;;;;;;5011093;28;20065;-64
2022/10/21 01:07:38;;;;;;;83.13;38.27;;;;;;;;;;5010935;28;20077;-65
2022/10/21 01:10:04;;;;;;;127.57;47.60;;;;;;;;;;5010663;28;20092;-65
2022/10/21 01:12:43;;;;;;;96.07;40.70;;;;;;;;;;5011026;28;20069;-65
2022/10/21 01:15:09;;;;;;;103.10;42.07;;;;;;;;;;5009487;28;20108;-64
2022/10/21 01:17:47;;;;;;;87.10;37.60;;;;;;;;;;5010506;28;20054;-65
2022/10/21 01:20:13;;;;;;;85.37;38.10;;;;;;;;;;5027099;28;20049;-65
2022/10/21 01:22:42;;;;;;;74.83;36.63;;;;;;;;;;5029882;28;20052;-65
2022/10/21 01:25:21;;;;;;;90.87;37.63;;;;;;;;;;5030476;28;20049;-64
2022/10/21 01:27:53;;;;;;;72.57;34.10;;;;;;;;;;5030463;28;20404;-65
2022/10/21 01:30:22;;;;;;;75.27;36.23;;;;;;;;;;5030062;28;20053;-65
2022/10/21 01:33:06;;;;;;;95.53;39.30;;;;;;;;;;5029978;28;20050;-65
2022/10/21 01:35:39;;;;;;;70.35;34.45;;;;;;;;;;5025455;28;20058;-65
2022/10/21 01:38:05;;;;;;;;;;;;;;;;;;5010960;28;20056;-65
2022/10/21 01:40:31;;;;;;;125.47;42.87;;;;;;;;;;5010489;28;20375;-65
2022/10/21 01:43:04;;;;;;;89.70;38.60;;;;;;;;;;5010107;28;20078;-65
2022/10/21 01:45:30;;;;;;;78.28;34.03;;;;;;;;;;5010315;28;20076;-65
2022/10/21 01:47:58;;;;;;;89.37;38.37;;;;;;;;;;5009924;28;20111;-64
2022/10/21 01:50:27;;;;;;;74.50;36.53;;;;;;;;;;5010185;28;20046;-64
2022/10/21 01:52:58;;;;;;;94.70;39.90;;;;;;;;;;5021962;28;20076;-65
2022/10/21 01:55:27;;;;;;;80.30;35.67;;;;;;;;;;5010029;28;20034;-65
2022/10/21 01:57:55;;;;;;;69.47;33.57;;;;;;;;;;5009871;28;20049;-65
2022/10/21 02:00:21;;;;;;;78.00;36.30;;;;;;;;;;5010535;28;20081;-65
2022/10/21 02:02:49;;;;;;;82.80;36.47;;;;;;;;;;5021035;28;20048;-64
2022/10/21 02:05:20;;;;;;;64.43;32.03;;;;;;;;;;5012840;28;20420;-64
2022/10/21 02:07:47;;;;;;;76.57;35.87;;;;;;;;;;5024558;28;20053;-64
2022/10/21 02:10:13;;;;;;;72.70;34.93;;;;;;;;;;5010506;28;20061;-64
2022/10/21 02:12:40;;;;;;;93.37;40.70;;;;;;;;;;5009997;28;20045;-65
2022/10/21 02:15:08;;;;;;;96.20;39.27;;;;;;;;;;5026980;28;20057;-65
2022/10/21 02:17:36;;;;;;;112.83;40.83;;;;;;;;;;5018797;28;20467;-65
2022/10/21 02:20:03;;;;;;;103.40;39.03;;;;;;;;;;5026483;28;20096;-65
2022/10/21 02:22:30;;;;;;;85.07;36.07;;;;;;;;;;5025523;28;20042;-65
2022/10/21 02:24:59;;;;;;;80.47;37.33;;;;;;;;;;5010241;28;20069;-65
2022/10/21 02:27:25;;;;;;;87.70;36.73;;;;;;;;;;5009663;28;20128;-65
2022/10/21 02:29:54;;;;;;;88.63;39.37;;;;;;;;;;5009781;28;20137;-65
2022/10/21 02:32:29;;;;;;;96.90;41.93;;;;;;;;;;5009565;28;20094;-65
2022/10/21 02:35:03;;;;;;;114.60;43.33;;;;;;;;;;5015340;28;20088;-65
2022/10/21 02:37:36;;;;;;;84.40;38.63;;;;;;;;;;5009570;28;20401;-64
2022/10/21 02:40:06;;;;;;;78.65;36.65;;;;;;;;;;4991905;28;20057;-64
2022/10/21 02:42:35;;;;;;;101.77;39.57;;;;;;;;;;5009452;28;20045;-65
2022/10/21 02:45:01;;;;;;;109.00;41.90;;;;;;;;;;5009058;28;20076;-65
2022/10/21 02:47:28;;;;;;;103.27;43.83;;;;;;;;;;5009741;28;20042;-65
2022/10/21 02:49:55;;;;;;;110.97;42.87;;;;;;;;;;5009731;28;20125;-65
2022/10/21 02:52:21;;;;;;;188.57;53.87;;;;;;;;;;5009117;28;20093;-65
2022/10/21 02:54:47;;;;;;;149.93;49.43;;;;;;;;;;5009419;28;20091;-65
2022/10/21 02:57:13;;;;;;;127.40;45.60;;;;;;;;;;5009207;28;20073;-65
2022/10/21 02:59:39;;;;;;;114.13;42.97;;;;;;;;;;5009271;28;20089;-65
2022/10/21 03:02:05;;;;;;;113.47;43.23;;;;;;;;;;5009291;28;20587;-65
2022/10/21 03:04:31;;;;;;;203.37;54.40;;;;;;;;;;5009222;28;20133;-65
2022/10/21 03:06:57;;;;;;;235.00;58.13;;;;;;;;;;5007701;28;20112;-65
2022/10/21 03:09:23;;;;;;;142.07;44.70;;;;;;;;;;5008903;28;20610;-65
2022/10/21 03:11:49;;;;;;;203.20;54.50;;;;;;;;;;5018241;28;20060;-64
2022/10/21 03:14:15;;;;;;;335.97;69.20;;;;;;;;;;5016046;28;20054;-64
2022/10/21 03:16:41;;;;;;;270.93;62.30;;;;;;;;;;5028892;28;20546;-64
2022/10/21 03:19:07;;;;;;;268.27;58.53;;;;;;;;;;5018609;28;20046;-65
2022/10/21 03:21:33;;;;;;;197.67;51.03;;;;;;;;;;5010523;28;20053;-64
2022/10/21 03:23:59;;;;;;;297.67;64.33;;;;;;;;;;5023159;28;20049;-64
2022/10/21 03:26:25;;;;;;;203.20;53.87;;;;;;;;;;5032155;28;20042;-64
2022/10/21 03:28:51;;;;;;;321.93;69.87;;;;;;;;;;5028031;28;20056;-65
2022/10/21 03:31:17;;;;;;;388.23;71.27;;;;;;;;;;5031427;28;20132;-64
2022/10/21 03:33:43;;;;;;;277.17;64.57;;;;;;;;;;5027598;28;20058;-64
2022/10/21 03:36:09;;;;;;;314.27;68.60;;;;;;;;;;5012714;28;20054;-64
2022/10/21 03:38:35;;;;;;;237.33;60.13;;;;;;;;;;5012781;28;20046;-64
2022/10/21 03:41:01;;;;;;;405.13;76.23;;;;;;;;;;5012405;28;20408;-65
2022/10/21 03:43:27;;;;;;;362.07;70.93;;;;;;;;;;5012482;28;20049;-64
2022/10/21 03:45:53;;;;;;;233.60;56.97;;;;;;;;;;5011301;28;20053;-65
2022/10/21 03:48:19;;;;;;;216.13;56.63;;;;;;;;;;5025195;28;20042;-65
2022/10/21 03:50:45;;;;;;;397.17;75.70;;;;;;;;;;5016732;28;20056;-64
2022/10/21 03:53:11;;;;;;;346.13;69.40;;;;;;;;;;5012202;28;20042;-64
2022/10/21 03:55:37;;;;;;;281.77;64.37;;;;;;;;;;5019205;28;20048;-65
2022/10/21 03:58:03;;;;;;;253.30;61.83;;;;;;;;;;5019478;28;20050;-64
2022/10/21 04:00:29;;;;;;;162.23;48.40;;;;;;;;;;5022805;28;20045;-65
2022/10/21 04:02:55;;;;;;;123.67;43.50;;;;;;;;;;5022336;28;20459;-64
2022/10/21 04:05:21;;;;;;;104.70;40.70;;;;;;;;;;5021315;28;20041;-65
2022/10/21 04:07:47;;;;;;;132.80;44.53;;;;;;;;;;5020472;28;20041;-65
2022/10/21 04:10:13;;;;;;;125.17;44.13;;;;;;;;;;5019062;28;20555;-65
2022/10/21 04:12:39;;;;;;;157.80;47.93;;;;;;;;;;5021414;28;20399;-65
2022/10/21 04:15:06;;;;;;;203.50;53.20;;;;;;;;;;5017169;28;20045;-65
2022/10/21 04:17:32;;;;;;;126.63;45.47;;;;;;;;;;5021863;28;20048;-65
2022/10/21 04:19:58;;;;;;;126.17;46.07;;;;;;;;;;5019679;28;20133;-65
2022/10/21 04:22:24;;;;;;;106.57;41.80;;;;;;;;;;5020229;28;20107;-65
2022/10/21 04:24:50;;;;;;;111.33;40.07;;;;;;;;;;5022048;28;20053;-64
2022/10/21 04:27:16;;;;;;;109.67;42.80;;;;;;;;;;5018263;28;20056;-65
2022/10/21 04:29:42;;;;;;;97.83;39.13;;;;;;;;;;5018344;28;20452;-65
2022/10/21 04:32:08;;;;;;;132.40;44.77;;;;;;;;;;5020768;28;20496;-65
2022/10/21 04:34:34;;;;;;;119.03;45.23;;;;;;;;;;5020022;28;20061;-65
2022/10/21 04:37:00;;;;;;;105.90;42.40;;;;;;;;;;5015142;28;20054;-64
2022/10/21 04:39:26;;;;;;;127.33;45.47;;;;;;;;;;5019236;28;20057;-65
2022/10/21 04:41:54;;;;;;;124.30;46.13;;;;;;;;;;5023649;28;20048;-65
2022/10/21 04:44:20;;;;;;;107.37;41.63;;;;;;;;;;5021901;28;20084;-65
2022/10/21 04:46:46;;;;;;;126.03;44.10;;;;;;;;;;5022122;28;20038;-65
2022/10/21 04:49:12;;;;;;;109.40;42.27;;;;;;;;;;5017467;28;20042;-65
2022/10/21 04:51:38;;;;;;;105.33;41.33;;;;;;;;;;5018135;28;20085;-65
2022/10/21 04:54:04;;;;;;;133.83;45.77;;;;;;;;;;5016266;28;20093;-64
2022/10/21 04:56:30;;;;;;;111.93;42.70;;;;;;;;;;5023737;28;20341;-65
2022/10/21 04:58:56;;;;;;;124.83;46.40;;;;;;;;;;5021484;28;20060;-65
2022/10/21 05:01:22;;;;;;;133.23;45.80;;;;;;;;;;5019354;28;20520;-64
2022/10/21 05:03:48;;;;;;;93.40;40.80;;;;;;;;;;5004289;28;20957;-64
2022/10/21 05:06:14;;;;;;;117.60;43.10;;;;;;;;;;5019998;28;20056;-65
2022/10/21 05:08:40;;;;;;;111.53;41.10;;;;;;;;;;5018569;28;20080;-64
2022/10/21 05:11:06;;;;;;;96.53;41.20;;;;;;;;;;5023604;28;20052;-65
2022/10/21 05:13:32;;;;;;;98.47;39.73;;;;;;;;;;5019447;28;20136;-64
2022/10/21 05:16:01;;;;;;;88.57;38.60;;;;;;;;;;5012961;28;20488;-64
2022/10/21 05:18:27;;;;;;;164.80;49.87;;;;;;;;;;5021278;28;20050;-64
2022/10/21 05:20:54;;;;;;;90.30;39.00;;;;;;;;;;5018503;28;20046;-65
2022/10/21 05:23:20;;;;;;;110.20;40.87;;;;;;;;;;5014566;28;20076;-65
2022/10/21 05:25:47;;;;;;;131.67;45.97;;;;;;;;;;5015904;28;20411;-65
2022/10/21 05:28:13;;;;;;;107.90;41.60;;;;;;;;;;5017048;28;20046;-64
2022/10/21 05:30:39;;;;;;;110.03;42.03;;;;;;;;;;5028246;28;20064;-65
2022/10/21 05:33:05;;;;;;;140.87;48.10;;;;;;;;;;5030302;28;20174;-64
2022/10/21 05:35:31;;;;;;;136.03;48.03;;;;;;;;;;5025375;28;20096;-64
2022/10/21 05:37:57;;;;;;;96.40;40.47;;;;;;;;;;5009984;28;20046;-64
2022/10/21 05:40:24;;;;;;;124.83;45.23;;;;;;;;;;5009627;28;20407;-65
2022/10/21 05:42:50;;;;;;;144.80;48.03;;;;;;;;;;5010179;28;20504;-64
2022/10/21 05:45:16;;;;;;;122.27;45.40;;;;;;;;;;5008771;28;20077;-65
2022/10/21 05:47:42;;;;;;;129.47;44.73;;;;;;;;;;5012394;28;20045;-64
2022/10/21 05:50:09;;;;;;;124.77;44.63;;;;;;;;;;5009750;28;20050;-65
2022/10/21 05:52:35;;;;;;;118.80;43.13;;;;;;;;;;5010590;28;20140;-65
2022/10/21 05:55:01;;;;;;;105.43;42.03;;;;;;;;;;5014874;28;20500;-65
2022/10/21 05:57:27;;;;;;;101.13;40.17;;;;;;;;;;5028256;28;20175;-65
2022/10/21 05:59:53;;;;;;;121.37;45.07;;;;;;;;;;5029622;28;20187;-65
2022/10/21 06:02:19;;;;;;;240.50;63.27;;;;;;;;;;5027578;28;20469;-64
2022/10/21 06:04:45;;;;;;;98.53;42.17;;;;;;;;;;5029159;28;20041;-65
2022/10/21 06:07:11;;;;;;;90.43;39.53;;;;;;;;;;5017719;28;20233;-65
2022/10/21 06:09:37;;;;;;;107.67;43.13;;;;;;;;;;5017274;28;20046;-64
2022/10/21 06:12:03;;;;;;;114.37;43.00;;;;;;;;;;5009423;28;20045;-65
2022/10/21 06:14:29;;;;;;;96.93;40.67;;;;;;;;;;5010737;28;20046;-65
2022/10/21 06:16:55;;;;;;;117.40;44.00;;;;;;;;;;5011712;28;20187;-64
2022/10/21 06:19:21;;;;;;;97.60;40.67;;;;;;;;;;5028085;28;20041;-65
2022/10/21 06:21:47;;;;;;;115.00;43.93;;;;;;;;;;5029049;28;20041;-64
2022/10/21 06:24:13;;;;;;;117.87;45.40;;;;;;;;;;5015682;28;20050;-64
2022/10/21 06:26:39;;;;;;;97.83;40.17;;;;;;;;;;5008473;28;20096;-65
2022/10/21 06:29:06;;;;;;;102.87;41.43;;;;;;;;;;5024052;28;20045;-64
2022/10/21 06:31:32;;;;;;;127.37;46.97;;;;;;;;;;5025844;28;20052;-65
2022/10/21 06:33:58;;;;;;;110.03;42.03;;;;;;;;;;5028118;28;20467;-64
2022/10/21 06:36:24;;;;;;;121.57;42.93;;;;;;;;;;5018990;28;20412;-65
2022/10/21 06:38:50;;;;;;;106.53;42.00;;;;;;;;;;5022123;28;20483;-64
2022/10/21 06:41:17;;;;;;;98.20;39.50;;;;;;;;;;5025399;28;20119;-65
2022/10/21 06:43:43;;;;;;;153.37;49.00;;;;;;;;;;5014031;28;20404;-64
2022/10/21 06:46:13;;;;;;;102.00;39.90;;;;;;;;;;5008872;28;20081;-64
2022/10/21 06:48:39;;;;;;;173.80;51.90;;;;;;;;;;5022682;28;20134;-65
2022/10/21 06:51:13;;;;;;;107.10;42.53;;;;;;;;;;5025493;28;20562;-65
2022/10/21 06:53:40;;;;;;;128.47;43.33;;;;;;;;;;5008848;28;20046;-64
2022/10/21 06:56:13;;;;;;;107.60;40.83;;;;;;;;;;5007994;28;20077;-65
2022/10/21 06:58:45;;;;;;;204.57;55.30;;;;;;;;;;5019682;28;20460;-64
2022/10/21 07:01:14;;;;;;;100.67;40.87;;;;;;;;;;5026775;28;20049;-64
2022/10/21 07:03:40;;;;;;;125.80;44.20;;;;;;;;;;5016104;28;20045;-64
2022/10/21 07:06:06;;;;;;;110.13;42.83;;;;;;;;;;5021715;28;20128;-64
2022/10/21 07:08:32;;;;;;;98.90;40.57;;;;;;;;;;5023602;28;20413;-64
2022/10/21 07:10:59;;;;;;;99.23;39.63;;;;;;;;;;5016351;28;20044;-64
2022/10/21 07:13:25;;;;;;;93.67;39.07;;;;;;;;;;5027846;28;20053;-65
2022/10/21 07:16:01;;;;;;;136.70;47.20;;;;;;;;;;5028022;28;20132;-64
2022/10/21 07:18:27;;;;;;;103.30;40.27;;;;;;;;;;5014445;28;20053;-64
2022/10/21 07:20:53;;;;;;;120.67;43.00;;;;;;;;;;5020393;28;20050;-65
2022/10/21 07:23:19;;;;;;;142.33;47.63;;;;;;;;;;5017098;28;20119;-65
2022/10/21 07:25:45;;;;;;;134.23;45.13;;;;;;;;;;5010411;28;20044;-65
2022/10/21 07:28:11;;;;;;;110.83;41.97;;;;;;;;;;5012574;28;20042;-64
2022/10/21 07:30:41;;;;;;;147.13;48.27;;;;;;;;;;5011514;28;20041;-65
2022/10/21 07:33:08;;;;;;;104.20;40.27;;;;;;;;;;5027274;28;20045;-65
2022/10/21 07:35:34;;;;;;;102.23;40.10;;;;;;;;;;5022689;28;20053;-65
2022/10/21 07:38:00;;;;;;;110.40;40.57;;;;;;;;;;5007989;28;20050;-65
2022/10/21 07:40:27;;;;;;;98.03;39.47;;;;;;;;;;5007316;28;20049;-65
2022/10/21 07:42:53;;;;;;;80.33;35.40;;;;;;;;;;5007636;28;20053;-65
2022/10/21 07:45:20;;;;;;;82.53;36.60;;;;;;;;;;5007502;28;20052;-65
2022/10/21 07:47:46;;;;;;;98.87;42.60;;;;;;;;;;5008612;28;20100;-65
2022/10/21 07:50:12;;;;;;;93.30;37.90;;;;;;;;;;5008498;28;20046;-65
2022/10/21 07:52:44;;;;;;;67.10;32.63;;;;;;;;;;5007590;28;20046;-64
2022/10/21 07:55:13;;;;;;;67.90;32.43;;;;;;;;;;5018645;28;20054;-65
2022/10/21 07:57:40;;;;;;;78.83;35.93;;;;;;;;;;5025638;28;20041;-65
2022/10/21 08:00:06;;;;;;;92.57;40.33;;;;;;;;;;5026310;28;20046;-65
2022/10/21 08:02:32;;;;;;;57.90;32.07;;;;;;;;;;5008921;28;20057;-65
2022/10/21 08:04:59;;;;;;;62.07;32.03;;;;;;;;;;5027307;28;20076;-65
2022/10/21 08:07:25;;;;;;;61.80;31.17;;;;;;;;;;5028358;28;20510;-65
2022/10/21 08:09:51;;;;;;;51.87;29.17;;;;;;;;;;5028625;28;20116;-65
2022/10/21 08:12:17;;;;;;;53.53;27.47;;;;;;;;;;5031051;28;20049;-65
2022/10/21 08:14:43;;;;;;;44.50;25.50;;;;;;;;;;5030995;28;20049;-64
2022/10/21 08:17:09;;;;;;;45.10;25.73;;;;;;;;;;5028418;28;20503;-64
2022/10/21 08:19:35;;;;;;;41.53;24.37;;;;;;;;;;5011082;28;20050;-65
2022/10/21 08:22:01;;;;;;;68.87;30.97;;;;;;;;;;5010864;28;20053;-64
2022/10/21 08:24:27;;;;;;;45.13;25.30;;;;;;;;;;5011054;28;20058;-64
2022/10/21 08:26:54;;;;;;;39.80;21.20;;;;;;;;;;5010463;28;20038;-64
2022/10/21 08:29:20;;;;;;;51.77;25.43;;;;;;;;;;5010950;28;20046;-65
2022/10/21 08:31:46;;;;;;;46.37;22.87;;;;;;;;;;5011461;28;20050;-65
2022/10/21 08:34:12;;;;;;;41.30;22.83;;;;;;;;;;5010606;28;20512;-65
2022/10/21 08:36:38;;;;;;;39.40;22.83;;;;;;;;;;5009884;28;20137;-65
2022/10/21 08:39:05;;;;;;;35.67;20.60;;;;;;;;;;5010911;28;20088;-64
2022/10/21 08:41:31;;;;;;;37.87;21.00;;;;;;;;;;5010638;28;20508;-65
2022/10/21 08:44:04;;;;;;;34.37;19.70;;;;;;;;;;5011085;28;20500;-64
2022/10/21 08:46:35;;;;;;;36.33;19.98;;;;;;;;;;5011316;28;20077;-64
2022/10/21 08:49:04;;;;;;;44.60;22.73;;;;;;;;;;5012044;28;20054;-64
2022/10/21 08:51:37;;;;;;;42.40;22.00;;;;;;;;;;5010758;28;20523;-64
2022/10/21 08:54:05;;;;;;;34.97;19.33;;;;;;;;;;5023951;28;20053;-64
2022/10/21 08:56:31;;;;;;;31.63;18.07;;;;;;;;;;5029254;28;20090;-65
2022/10/21 08:58:58;;;;;;;32.87;18.47;;;;;;;;;;5030598;28;20057;-64
2022/10/21 09:01:46;;;;;;;34.13;19.47;;;;;;;;;;5029083;28;20068;-65
2022/10/21 09:04:18;;;;;;;21.13;14.93;;;;;;;;;;5028781;28;20056;-64
2022/10/21 09:06:44;;;;;;;27.47;17.77;;;;;;;;;;5030371;28;20068;-65
2022/10/21 09:09:10;;;;;;;24.50;16.00;;;;;;;;;;5030337;28;20045;-64
2022/10/21 09:11:43;;;;;;;25.10;15.70;;;;;;;;;;5029918;28;20072;-64
2022/10/21 09:14:21;;;;;;;20.45;14.77;;;;;;;;;;5030375;28;20407;-64
2022/10/21 09:16:55;;;;;;;23.30;14.17;;;;;;;;;;5014624;28;20054;-65
2022/10/21 09:19:36;;;;;;;22.47;13.60;;;;;;;;;;5009232;28;20050;-64
2022/10/21 09:22:15;;;;;;;15.47;11.03;;;;;;;;;;5010115;28;20084;-64
2022/10/21 09:24:44;;;;;;;13.43;9.30;;;;;;;;;;5027582;28;20045;-65
2022/10/21 09:27:10;;;;;;;15.17;10.03;;;;;;;;;;5029971;28;20787;-64
2022/10/21 09:29:37;;;;;;;16.03;9.90;;;;;;;;;;5029964;28;20037;-64
2022/10/21 09:32:22;;;;;;;15.47;8.80;;;;;;;;;;5030066;28;20063;-64
2022/10/21 09:34:56;;;;;;;18.83;9.40;;;;;;;;;;5029536;28;20060;-64
2022/10/21 09:37:24;;;;;;;15.87;8.97;;;;;;;;;;5029602;28;20054;-64
2022/10/21 09:40:10;;;;;;;16.17;8.67;;;;;;;;;;5023924;28;20046;-65
2022/10/21 09:42:36;;;;;;;12.57;8.00;;;;;;;;;;4996098;28;20117;-65
2022/10/21 09:45:03;;;;;;;11.53;8.17;;;;;;;;;;5009326;28;20042;-65
2022/10/21 09:47:29;;;;;;;12.40;8.37;;;;;;;;;;5011085;28;20041;-65
2022/10/21 09:49:58;;;;;;;13.50;8.63;;;;;;;;;;5010521;28;20163;-64
2022/10/21 09:52:28;;;;;;;12.07;8.87;;;;;;;;;;5017941;28;20046;-64
2022/10/21 09:54:54;;;;;;;16.90;9.67;;;;;;;;;;5019104;28;20052;-64
2022/10/21 09:57:29;;;;;;;18.93;9.07;;;;;;;;;;5017033;28;20081;-64
2022/10/21 09:59:59;;;;;;;16.37;8.50;;;;;;;;;;5019038;28;20045;-63
2022/10/21 10:02:33;;;;;;;15.00;7.77;;;;;;;;;;5018013;28;20404;-64
2022/10/21 10:04:59;;;;;;;11.80;7.87;;;;;;;;;;5017206;28;20125;-64
2022/10/21 10:07:25;;;;;;;17.17;7.43;;;;;;;;;;5017897;28;20034;-64
2022/10/21 10:09:51;;;;;;;19.03;8.53;;;;;;;;;;5017168;28;20084;-64
2022/10/21 10:12:25;;;;;;;14.67;8.40;;;;;;;;;;5019031;28;20135;-64
2022/10/21 10:14:51;;;;;;;13.23;8.17;;;;;;;;;;5022038;28;20392;-64
2022/10/21 10:17:38;;;;;;;15.37;8.43;;;;;;;;;;5014708;28;20037;-64
2022/10/21 10:20:04;;;;;;;11.93;8.07;;;;;;;;;;5018858;28;20124;-65
2022/10/21 10:22:30;;;;;;;17.83;7.43;;;;;;;;;;5016985;28;20058;-64
2022/10/21 10:25:16;;;;;;;13.70;8.83;;;;;;;;;;5017548;28;20045;-64
2022/10/21 10:27:47;;;;;;;12.97;7.20;;;;;;;;;;5018664;28;20672;-64
2022/10/21 10:30:13;;;;;;;13.70;7.77;;;;;;;;;;5016583;28;20038;-64
2022/10/21 10:32:40;;;;;;;15.43;6.87;;;;;;;;;;5017511;28;20091;-65
2022/10/21 10:35:08;;;;;;;20.20;8.33;;;;;;;;;;5014662;28;20069;-64
2022/10/21 10:37:35;;;;;;;10.23;7.33;;;;;;;;;;5016105;28;20156;-65
2022/10/21 10:40:03;;;;;;;10.73;7.27;;;;;;;;;;5017167;28;20045;-64
2022/10/21 10:42:32;;;;;;;10.00;6.83;;;;;;;;;;5020234;28;20041;-64
2022/10/21 10:45:00;;;;;;;10.37;7.03;;;;;;;;;;5016656;28;20033;-64
2022/10/21 10:47:47;;;;;;;9.13;6.20;;;;;;;;;;5018031;28;20038;-64
2022/10/21 10:50:32;;;;;;;12.33;6.50;;;;;;;;;;5018647;28;20139;-65
2022/10/21 10:53:20;;;;;;;15.90;7.30;;;;;;;;;;5016156;28;20045;-64
2022/10/21 10:55:47;;;;;;;14.20;7.30;;;;;;;;;;5018408;28;20453;-64
2022/10/21 10:58:14;;;;;;;11.30;6.47;;;;;;;;;;5016730;28;20100;-64
2022/10/21 11:00:42;;;;;;;11.53;6.40;;;;;;;;;;5016896;28;20048;-64
2022/10/21 11:03:14;;;;;;;11.60;6.40;;;;;;;;;;5018164;28;20347;-65
2022/10/21 11:05:40;;;;;;;10.77;5.97;;;;;;;;;;5017823;28;20044;-64
2022/10/21 11:08:17;;;;;;;10.70;6.80;;;;;;;;;;5016020;28;20049;-64
2022/10/21 11:10:55;;;;;;;18.37;6.50;;;;;;;;;;5016690;28;20049;-64
2022/10/21 11:13:22;;;;;;;13.87;6.40;;;;;;;;;;5013596;28;20046;-65
2022/10/21 11:15:57;;;;;;;10.13;6.77;;;;;;;;;;5017524;28;20034;-64
2022/10/21 11:18:35;;;;;;;9.77;5.97;;;;;;;;;;5016180;28;20077;-65
2022/10/21 11:21:06;;;;;;;10.77;6.33;;;;;;;;;;5009085;28;20045;-65
2022/10/21 11:23:32;;;;;;;11.37;6.43;;;;;;;;;;5014638;28;20116;-64
2022/10/21 11:26:16;;;;;;;12.90;6.27;;;;;;;;;;5011653;28;20042;-64
2022/10/21 11:28:47;;;;;;;9.53;6.20;;;;;;;;;;5007780;28;20057;-64
2022/10/21 11:31:22;;;;;;;12.13;6.67;;;;;;;;;;5007443;28;20062;-64
2022/10/21 11:34:00;;;;;;;12.60;6.83;;;;;;;;;;5007790;28;20054;-64
2022/10/21 11:36:26;;;;;;;14.00;7.20;;;;;;;;;;5008026;28;20159;-64
2022/10/21 11:39:09;;;;;;;14.47;6.97;;;;;;;;;;5009098;28;20055;-64
2022/10/21 11:41:40;;;;;;;14.27;6.80;;;;;;;;;;5007368;28;20064;-64
2022/10/21 11:44:28;;;;;;;8.03;6.63;;;;;;;;;;5011505;28;20179;-64
2022/10/21 11:47:05;;;;;;;11.57;6.93;;;;;;;;;;5010895;28;20927;-64
2022/10/21 11:49:40;;;;;;;12.03;7.43;;;;;;;;;;5011680;28;20463;-64
2022/10/21 11:52:06;;;;;;;12.37;6.70;;;;;;;;;;5011336;28;20061;-64
2022/10/21 11:54:38;;;;;;;12.80;5.97;;;;;;;;;;5027018;28;20411;-64
2022/10/21 11:57:23;;;;;;;10.30;6.53;;;;;;;;;;5031005;28;20103;-64
2022/10/21 11:59:58;;;;;;;17.53;7.73;;;;;;;;;;5030879;28;20046;-64
2022/10/21 12:02:30;;;;;;;12.27;6.37;;;;;;;;;;5031079;28;20050;-64
2022/10/21 12:04:59;;;;;;;11.40;6.13;;;;;;;;;;5030323;28;20112;-64
2022/10/21 12:07:44;;;;;;;12.50;6.70;;;;;;;;;;5028642;28;20053;-64
2022/10/21 12:10:22;;;;;;;13.07;6.80;;;;;;;;;;5030681;28;20045;-64
2022/10/21 12:12:49;;;;;;;14.23;6.60;;;;;;;;;;5030589;28;20077;-64
2022/10/21 12:15:25;;;;;;;10.47;6.23;;;;;;;;;;5030464;28;20050;-63
2022/10/21 12:17:52;;;;;;;12.90;7.00;;;;;;;;;;5030973;28;20138;-63
2022/10/21 12:20:22;;;;;;;12.13;6.47;;;;;;;;;;5030467;28;20052;-63
2022/10/21 12:22:49;;;;;;;10.70;5.90;;;;;;;;;;5018309;28;20149;-63
2022/10/21 12:25:15;;;;;;;11.37;6.87;;;;;;;;;;5013815;28;20163;-63
2022/10/21 12:27:43;;;;;;;9.30;6.17;;;;;;;;;;5028584;28;20045;-64
2022/10/21 12:30:18;;;;;;;10.53;6.90;;;;;;;;;;5029904;28;20048;-63
2022/10/21 12:32:50;;;;;;;11.73;6.53;;;;;;;;;;5030255;28;20045;-64
2022/10/21 12:35:24;;;;;;;13.93;6.67;;;;;;;;;;5027866;28;20057;-63
2022/10/21 12:37:50;;;;;;;10.30;6.70;;;;;;;;;;5017245;28;20048;-63
2022/10/21 12:40:16;;;;;;;11.43;6.50;;;;;;;;;;5030407;28;20054;-63
2022/10/21 12:42:46;;;;;;;19.50;7.73;;;;;;;;;;5020929;28;20053;-63
2022/10/21 12:45:26;;;;;;;10.00;6.20;;;;;;;;;;5010849;28;20042;-63
2022/10/21 12:47:52;;;;;;;14.40;7.43;;;;;;;;;;5011193;28;20509;-63
2022/10/21 12:50:23;;;;;;;12.23;6.40;;;;;;;;;;5011048;28;20061;-63
2022/10/21 12:53:22;;;;;;;11.20;6.33;;;;;;;;;;5010332;28;20053;-63
2022/10/21 12:55:49;;;;;;;9.70;6.03;;;;;;;;;;4978800;28;20508;-63
2022/10/21 12:58:34;;;;;;;16.30;6.03;;;;;;;;;;5012746;28;20037;-63
2022/10/21 13:01:01;;;;;;;12.77;6.90;;;;;;;;;;5028842;28;20053;-63
2022/10/21 13:03:45;;;;;;;13.50;5.37;;;;;;;;;;5014810;28;20442;-63
2022/10/21 13:06:12;;;;;;;10.83;4.97;;;;;;;;;;5014864;28;20356;-63
2022/10/21 13:08:40;;;;;;;8.87;5.50;;;;;;;;;;5019607;28;20045;-63
2022/10/21 13:11:06;;;;;;;8.50;4.60;;;;;;;;;;5018568;28;20085;-63
2022/10/21 13:13:32;;;;;;;8.97;4.70;;;;;;;;;;5021701;28;20137;-63
2022/10/21 13:15:59;;;;;;;9.97;4.80;;;;;;;;;;5021316;28;20499;-63
2022/10/21 13:18:44;;;;;;;8.13;4.10;;;;;;;;;;5020063;28;20042;-63
2022/10/21 13:21:22;;;;;;;8.47;4.47;;;;;;;;;;5017344;28;20049;-62
2022/10/21 13:23:50;;;;;;;8.40;4.60;;;;;;;;;;5019026;28;20090;-63
2022/10/21 13:26:22;;;;;;;11.73;4.70;;;;;;;;;;5022467;28;20042;-62
2022/10/21 13:28:56;;;;;;;9.00;4.78;;;;;;;;;;5020267;28;20052;-62
2022/10/21 13:31:22;;;;;;;;;;;;;;;;;;5016048;28;20072;-62
2022/10/21 13:33:52;;;;;;;12.20;4.20;;;;;;;;;;5017534;28;20678;-62
2022/10/21 13:36:24;;;;;;;7.83;4.10;;;;;;;;;;5020382;28;20054;-62
2022/10/21 13:38:52;;;;;;;7.00;3.95;;;;;;;;;;5016372;28;20044;-63
2022/10/21 13:41:28;;;;;;;8.47;3.80;;;;;;;;;;5016802;28;20046;-62
2022/10/21 13:43:56;;;;;;;9.73;4.10;;;;;;;;;;5019412;28;20034;-62
2022/10/21 13:46:26;;;;;;;8.00;4.07;;;;;;;;;;5018365;28;20038;-62
2022/10/21 13:48:53;;;;;;;8.10;3.77;;;;;;;;;;5019793;28;20442;-62
2022/10/21 13:51:21;;;;;;;9.23;4.03;;;;;;;;;;5019197;28;20223;-62
2022/10/21 13:53:48;;;;;;;10.40;4.60;;;;;;;;;;5018374;28;20500;-62
2022/10/21 13:56:30;;;;;;;7.77;3.67;;;;;;;;;;5019291;28;20108;-62
2022/10/21 13:58:57;;;;;;;9.13;4.28;;;;;;;;;;5019843;28;20180;-62
2022/10/21 14:01:25;;;;;;;9.70;3.70;;;;;;;;;;5020628;28;20045;-62
2022/10/21 14:03:52;;;;;;;6.43;4.07;;;;;;;;;;5018588;28;20049;-62
2022/10/21 14:06:22;;;;;;;6.47;3.40;;;;;;;;;;5018091;28;20138;-62
2022/10/21 14:08:49;;;;;;;5.50;3.60;;;;;;;;;;5020043;28;20052;-62
2022/10/21 14:11:18;;;;;;;8.37;4.13;;;;;;;;;;5019071;28;20042;-62
2022/10/21 14:13:45;;;;;;;7.57;3.77;;;;;;;;;;5017943;28;20200;-62
2022/10/21 14:16:17;;;;;;;7.57;3.73;;;;;;;;;;5019192;28;20083;-62
2022/10/21 14:18:45;;;;;;;5.40;3.42;;;;;;;;;;5019984;28;20041;-62
2022/10/21 14:21:15;;;;;;;8.77;4.30;;;;;;;;;;5017415;28;20102;-62
2022/10/21 14:23:44;;;;;;;7.17;3.73;;;;;;;;;;5018692;28;20496;-62
2022/10/21 14:26:10;;;;;;;7.13;3.70;;;;;;;;;;5018190;28;20046;-62
2022/10/21 14:28:36;;;;;;;6.97;4.70;;;;;;;;;;5021027;28;20112;-62